sensor_id;sensor_type;location;lat;lon;timestamp;temperature;humidity
6879;DHT22;3478;51.462;7.338;2023-04-06T00:03:43;4.80;78.40
6879;DHT22;3478;51.462;7.338;2023-04-06T00:08:45;4.70;79.90
6879;DHT22;3478;51.462;7.338;2023-04-06T00:13:47;4.70;80.00
6879;DHT22;3478;51.462;7.338;2023-04-06T00:18:50;4.70;81.30
6879;DHT22;3478;51.462;7.338;2023-04-06T00:23:52;4.70;83.80
6879;DHT22;3478;51.462;7.338;2023-04-06T00:28:54;4.70;84.40
6879;DHT22;3478;51.462;7.338;2023-04-06T00:33:58;4.70;86.70
6879;DHT22;3478;51.462;7.338;2023-04-06T00:39:00;4.70;86.40
6879;DHT22;3478;51.462;7.338;2023-04-06T00:44:02;4.60;85.50
6879;DHT22;3478;51.462;7.338;2023-04-06T00:49:05;4.60;86.80
6879;DHT22;3478;51.462;7.338;2023-04-06T00:54:07;4.60;85.80
6879;DHT22;3478;51.462;7.338;2023-04-06T00:59:10;4.50;87.30
6879;DHT22;3478;51.462;7.338;2023-04-06T01:04:14;4.40;87.90
6879;DHT22;3478;51.462;7.338;2023-04-06T01:09:16;4.40;88.50
6879;DHT22;3478;51.462;7.338;2023-04-06T01:14:18;4.40;88.70
6879;DHT22;3478;51.462;7.338;2023-04-06T01:19:22;4.40;88.50
6879;DHT22;3478;51.462;7.338;2023-04-06T01:24:25;4.40;88.90
6879;DHT22;3478;51.462;7.338;2023-04-06T01:29:27;4.40;87.20
6879;DHT22;3478;51.462;7.338;2023-04-06T01:34:29;4.50;86.20
6879;DHT22;3478;51.462;7.338;2023-04-06T01:39:33;4.60;84.40
6879;DHT22;3478;51.462;7.338;2023-04-06T01:44:35;4.70;84.30
6879;DHT22;3478;51.462;7.338;2023-04-06T01:49:37;4.70;84.50
6879;DHT22;3478;51.462;7.338;2023-04-06T01:54:41;4.70;84.30
6879;DHT22;3478;51.462;7.338;2023-04-06T01:59:42;4.70;83.90
6879;DHT22;3478;51.462;7.338;2023-04-06T02:04:44;4.60;84.70
6879;DHT22;3478;51.462;7.338;2023-04-06T02:09:48;4.50;84.10
6879;DHT22;3478;51.462;7.338;2023-04-06T02:14:50;4.50;84.90
6879;DHT22;3478;51.462;7.338;2023-04-06T02:19:52;4.50;84.40
6879;DHT22;3478;51.462;7.338;2023-04-06T02:24:55;4.50;85.50
6879;DHT22;3478;51.462;7.338;2023-04-06T02:29:57;4.40;84.40
6879;DHT22;3478;51.462;7.338;2023-04-06T02:34:59;4.40;84.20
6879;DHT22;3478;51.462;7.338;2023-04-06T02:40:03;4.50;83.40
6879;DHT22;3478;51.462;7.338;2023-04-06T02:45:06;4.50;83.50
6879;DHT22;3478;51.462;7.338;2023-04-06T02:50:09;4.50;83.00
6879;DHT22;3478;51.462;7.338;2023-04-06T02:55:12;4.60;83.00
6879;DHT22;3478;51.462;7.338;2023-04-06T03:00:14;4.60;82.20
6879;DHT22;3478;51.462;7.338;2023-04-06T03:05:17;4.70;81.30
6879;DHT22;3478;51.462;7.338;2023-04-06T03:10:20;4.70;81.90
6879;DHT22;3478;51.462;7.338;2023-04-06T03:15:23;4.70;81.30
6879;DHT22;3478;51.462;7.338;2023-04-06T03:20:25;4.60;81.80
6879;DHT22;3478;51.462;7.338;2023-04-06T03:25:28;4.50;82.50
6879;DHT22;3478;51.462;7.338;2023-04-06T03:30:31;4.40;83.10
6879;DHT22;3478;51.462;7.338;2023-04-06T03:35:33;4.40;83.80
6879;DHT22;3478;51.462;7.338;2023-04-06T03:40:36;4.50;83.60
6879;DHT22;3478;51.462;7.338;2023-04-06T03:45:38;4.50;83.10
6879;DHT22;3478;51.462;7.338;2023-04-06T03:50:40;4.50;82.50
6879;DHT22;3478;51.462;7.338;2023-04-06T03:55:43;4.40;82.90
6879;DHT22;3478;51.462;7.338;2023-04-06T04:00:45;4.50;83.50
6879;DHT22;3478;51.462;7.338;2023-04-06T04:05:47;4.40;83.70
6879;DHT22;3478;51.462;7.338;2023-04-06T04:10:51;4.30;84.50
6879;DHT22;3478;51.462;7.338;2023-04-06T04:15:53;4.30;85.00
6879;DHT22;3478;51.462;7.338;2023-04-06T04:20:55;4.20;85.40
6879;DHT22;3478;51.462;7.338;2023-04-06T04:25:58;4.20;85.40
6879;DHT22;3478;51.462;7.338;2023-04-06T04:31:00;4.10;85.50
6879;DHT22;3478;51.462;7.338;2023-04-06T04:36:03;4.10;86.10
6879;DHT22;3478;51.462;7.338;2023-04-06T04:41:06;4.10;86.10
6879;DHT22;3478;51.462;7.338;2023-04-06T04:46:09;4.10;86.60
6879;DHT22;3478;51.462;7.338;2023-04-06T04:51:11;4.10;85.90
6879;DHT22;3478;51.462;7.338;2023-04-06T04:56:14;4.10;86.10
6879;DHT22;3478;51.462;7.338;2023-04-06T05:01:16;4.00;86.80
6879;DHT22;3478;51.462;7.338;2023-04-06T05:06:18;4.10;86.60
6879;DHT22;3478;51.462;7.338;2023-04-06T05:11:22;4.00;85.70
6879;DHT22;3478;51.462;7.338;2023-04-06T05:16:24;4.00;86.50
6879;DHT22;3478;51.462;7.338;2023-04-06T05:21:26;4.10;85.60
6879;DHT22;3478;51.462;7.338;2023-04-06T05:26:30;4.20;84.50
6879;DHT22;3478;51.462;7.338;2023-04-06T05:31:32;4.20;84.40
6879;DHT22;3478;51.462;7.338;2023-04-06T05:36:34;4.30;84.00
6879;DHT22;3478;51.462;7.338;2023-04-06T05:41:37;4.40;82.10
6879;DHT22;3478;51.462;7.338;2023-04-06T05:46:40;4.50;83.60
6879;DHT22;3478;51.462;7.338;2023-04-06T05:51:42;4.60;83.30
6879;DHT22;3478;51.462;7.338;2023-04-06T05:56:46;4.70;82.40
6879;DHT22;3478;51.462;7.338;2023-04-06T06:01:48;4.80;82.90
6879;DHT22;3478;51.462;7.338;2023-04-06T06:06:50;4.90;82.30
6879;DHT22;3478;51.462;7.338;2023-04-06T06:11:53;5.00;81.20
6879;DHT22;3478;51.462;7.338;2023-04-06T06:16:55;5.20;78.30
6879;DHT22;3478;51.462;7.338;2023-04-06T06:21:57;5.30;77.60
6879;DHT22;3478;51.462;7.338;2023-04-06T06:27:03;5.30;77.50
6879;DHT22;3478;51.462;7.338;2023-04-06T06:32:05;5.50;78.50
6879;DHT22;3478;51.462;7.338;2023-04-06T06:37:09;5.70;78.80
6879;DHT22;3478;51.462;7.338;2023-04-06T06:42:13;5.70;75.10
6879;DHT22;3478;51.462;7.338;2023-04-06T06:47:14;5.80;74.80
6879;DHT22;3478;51.462;7.338;2023-04-06T06:52:16;6.00;75.00
6879;DHT22;3478;51.462;7.338;2023-04-06T06:57:20;6.20;73.60
6879;DHT22;3478;51.462;7.338;2023-04-06T07:02:22;6.40;73.30
6879;DHT22;3478;51.462;7.338;2023-04-06T07:07:25;6.50;71.20
6879;DHT22;3478;51.462;7.338;2023-04-06T07:12:28;6.70;69.30
6879;DHT22;3478;51.462;7.338;2023-04-06T07:17:30;6.80;69.00
6879;DHT22;3478;51.462;7.338;2023-04-06T07:22:33;7.00;69.20
6879;DHT22;3478;51.462;7.338;2023-04-06T07:27:36;7.10;70.30
6879;DHT22;3478;51.462;7.338;2023-04-06T07:32:38;7.20;68.40
6879;DHT22;3478;51.462;7.338;2023-04-06T07:37:40;7.30;68.90
6879;DHT22;3478;51.462;7.338;2023-04-06T07:42:44;7.40;70.30
6879;DHT22;3478;51.462;7.338;2023-04-06T07:47:46;7.60;69.10
6879;DHT22;3478;51.462;7.338;2023-04-06T07:52:48;7.90;70.30
6879;DHT22;3478;51.462;7.338;2023-04-06T07:57:51;7.80;68.00
6879;DHT22;3478;51.462;7.338;2023-04-06T08:02:53;7.90;68.30
6879;DHT22;3478;51.462;7.338;2023-04-06T08:07:55;8.20;70.50
6879;DHT22;3478;51.462;7.338;2023-04-06T08:12:59;8.60;69.80
6879;DHT22;3478;51.462;7.338;2023-04-06T08:18:00;8.70;67.50
6879;DHT22;3478;51.462;7.338;2023-04-06T08:23:03;8.70;68.20
6879;DHT22;3478;51.462;7.338;2023-04-06T08:28:06;9.00;68.40
6879;DHT22;3478;51.462;7.338;2023-04-06T08:33:09;9.30;66.50
6879;DHT22;3478;51.462;7.338;2023-04-06T08:38:12;9.30;65.60
6879;DHT22;3478;51.462;7.338;2023-04-06T08:43:17;9.70;65.30
6879;DHT22;3478;51.462;7.338;2023-04-06T08:48:22;9.90;65.20
6879;DHT22;3478;51.462;7.338;2023-04-06T08:53:25;10.30;63.80
6879;DHT22;3478;51.462;7.338;2023-04-06T08:58:34;10.50;61.00
6879;DHT22;3478;51.462;7.338;2023-04-06T09:03:38;11.00;60.90
6879;DHT22;3478;51.462;7.338;2023-04-06T09:08:41;11.30;59.50
6879;DHT22;3478;51.462;7.338;2023-04-06T09:13:49;11.20;59.20
6879;DHT22;3478;51.462;7.338;2023-04-06T09:18:51;11.70;62.40
6879;DHT22;3478;51.462;7.338;2023-04-06T09:23:59;12.00;58.80
6879;DHT22;3478;51.462;7.338;2023-04-06T09:29:02;12.20;59.40
6879;DHT22;3478;51.462;7.338;2023-04-06T09:34:04;12.00;56.10
6879;DHT22;3478;51.462;7.338;2023-04-06T09:39:06;11.90;56.00
6879;DHT22;3478;51.462;7.338;2023-04-06T09:44:10;12.00;55.00
6879;DHT22;3478;51.462;7.338;2023-04-06T09:49:13;12.30;57.00
6879;DHT22;3478;51.462;7.338;2023-04-06T09:54:19;12.60;56.50
6879;DHT22;3478;51.462;7.338;2023-04-06T09:59:29;12.50;54.50
6879;DHT22;3478;51.462;7.338;2023-04-06T10:04:39;12.70;55.80
6879;DHT22;3478;51.462;7.338;2023-04-06T10:09:45;12.70;54.60
6879;DHT22;3478;51.462;7.338;2023-04-06T10:14:49;12.50;53.70
6879;DHT22;3478;51.462;7.338;2023-04-06T10:19:55;12.50;55.40
6879;DHT22;3478;51.462;7.338;2023-04-06T10:24:58;12.90;54.90
6879;DHT22;3478;51.462;7.338;2023-04-06T10:30:04;12.90;54.40
6879;DHT22;3478;51.462;7.338;2023-04-06T10:35:08;13.30;55.30
6879;DHT22;3478;51.462;7.338;2023-04-06T10:40:18;13.20;53.60
6879;DHT22;3478;51.462;7.338;2023-04-06T10:45:23;14.00;53.90
6879;DHT22;3478;51.462;7.338;2023-04-06T10:50:26;14.30;53.10
6879;DHT22;3478;51.462;7.338;2023-04-06T10:55:30;14.90;52.70
6879;DHT22;3478;51.462;7.338;2023-04-06T11:00:34;14.60;50.60
6879;DHT22;3478;51.462;7.338;2023-04-06T11:05:36;13.90;49.50
6879;DHT22;3478;51.462;7.338;2023-04-06T11:10:38;14.00;50.30
6879;DHT22;3478;51.462;7.338;2023-04-06T11:15:42;14.20;51.00
6879;DHT22;3478;51.462;7.338;2023-04-06T11:20:47;14.50;49.50
6879;DHT22;3478;51.462;7.338;2023-04-06T11:25:51;14.40;48.30
6879;DHT22;3478;51.462;7.338;2023-04-06T11:30:55;14.60;49.10
6879;DHT22;3478;51.462;7.338;2023-04-06T11:36:01;14.70;48.50
6879;DHT22;3478;51.462;7.338;2023-04-06T11:41:03;14.90;50.30
6879;DHT22;3478;51.462;7.338;2023-04-06T11:46:07;14.90;48.50
6879;DHT22;3478;51.462;7.338;2023-04-06T11:51:10;15.40;49.60
6879;DHT22;3478;51.462;7.338;2023-04-06T11:56:23;15.20;48.60
6879;DHT22;3478;51.462;7.338;2023-04-06T12:01:27;14.90;49.30
6879;DHT22;3478;51.462;7.338;2023-04-06T12:06:29;14.90;49.20
6879;DHT22;3478;51.462;7.338;2023-04-06T12:11:31;15.10;49.90
6879;DHT22;3478;51.462;7.338;2023-04-06T12:16:35;15.10;50.20
6879;DHT22;3478;51.462;7.338;2023-04-06T12:21:37;15.50;51.00
6879;DHT22;3478;51.462;7.338;2023-04-06T12:26:39;15.20;51.90
6879;DHT22;3478;51.462;7.338;2023-04-06T12:31:44;15.20;50.50
6879;DHT22;3478;51.462;7.338;2023-04-06T12:36:46;15.50;51.10
6879;DHT22;3478;51.462;7.338;2023-04-06T12:41:48;15.40;50.70
6879;DHT22;3478;51.462;7.338;2023-04-06T12:46:52;15.20;51.60
6879;DHT22;3478;51.462;7.338;2023-04-06T12:51:54;15.50;51.90
6879;DHT22;3478;51.462;7.338;2023-04-06T12:56:56;15.80;51.00
6879;DHT22;3478;51.462;7.338;2023-04-06T13:01:59;16.10;50.90
6879;DHT22;3478;51.462;7.338;2023-04-06T13:07:01;15.50;51.40
6879;DHT22;3478;51.462;7.338;2023-04-06T13:12:03;15.30;52.00
6879;DHT22;3478;51.462;7.338;2023-04-06T13:17:07;15.30;52.30
6879;DHT22;3478;51.462;7.338;2023-04-06T13:22:10;15.30;53.00
6879;DHT22;3478;51.462;7.338;2023-04-06T13:27:12;15.00;52.80
6879;DHT22;3478;51.462;7.338;2023-04-06T13:32:15;14.70;53.50
6879;DHT22;3478;51.462;7.338;2023-04-06T13:37:17;14.40;53.80
6879;DHT22;3478;51.462;7.338;2023-04-06T13:42:19;14.10;54.60
6879;DHT22;3478;51.462;7.338;2023-04-06T13:47:22;14.00;55.50
6879;DHT22;3478;51.462;7.338;2023-04-06T13:52:24;13.90;55.50
6879;DHT22;3478;51.462;7.338;2023-04-06T13:57:26;13.60;55.60
6879;DHT22;3478;51.462;7.338;2023-04-06T14:02:31;13.70;56.40
6879;DHT22;3478;51.462;7.338;2023-04-06T14:07:34;13.40;56.40
6879;DHT22;3478;51.462;7.338;2023-04-06T14:12:36;13.40;56.80
6879;DHT22;3478;51.462;7.338;2023-04-06T14:17:39;13.20;56.30
6879;DHT22;3478;51.462;7.338;2023-04-06T14:22:41;13.10;56.60
6879;DHT22;3478;51.462;7.338;2023-04-06T14:27:43;13.10;57.30
6879;DHT22;3478;51.462;7.338;2023-04-06T14:32:47;13.10;60.00
6879;DHT22;3478;51.462;7.338;2023-04-06T14:37:49;13.10;59.10
6879;DHT22;3478;51.462;7.338;2023-04-06T14:42:51;13.00;59.40
6879;DHT22;3478;51.462;7.338;2023-04-06T14:47:54;13.00;61.20
6879;DHT22;3478;51.462;7.338;2023-04-06T14:52:56;13.10;62.20
6879;DHT22;3478;51.462;7.338;2023-04-06T14:57:58;12.80;64.00
6879;DHT22;3478;51.462;7.338;2023-04-06T15:03:01;12.60;65.40
6879;DHT22;3478;51.462;7.338;2023-04-06T15:08:04;12.40;67.60
6879;DHT22;3478;51.462;7.338;2023-04-06T15:13:06;12.20;71.30
6879;DHT22;3478;51.462;7.338;2023-04-06T15:18:09;12.10;72.10
6879;DHT22;3478;51.462;7.338;2023-04-06T15:23:11;12.00;73.30
6879;DHT22;3478;51.462;7.338;2023-04-06T15:28:15;12.00;74.70
6879;DHT22;3478;51.462;7.338;2023-04-06T15:33:20;12.00;76.20
6879;DHT22;3478;51.462;7.338;2023-04-06T15:38:22;11.70;79.70
6879;DHT22;3478;51.462;7.338;2023-04-06T15:43:24;11.70;78.20
6879;DHT22;3478;51.462;7.338;2023-04-06T15:48:28;11.60;77.30
6879;DHT22;3478;51.462;7.338;2023-04-06T15:53:31;11.50;81.60
6879;DHT22;3478;51.462;7.338;2023-04-06T15:58:33;11.40;83.10
6879;DHT22;3478;51.462;7.338;2023-04-06T16:03:37;11.30;82.50
6879;DHT22;3478;51.462;7.338;2023-04-06T16:08:39;11.20;82.40
6879;DHT22;3478;51.462;7.338;2023-04-06T16:13:41;11.20;82.20
6879;DHT22;3478;51.462;7.338;2023-04-06T16:18:45;11.20;82.20
6879;DHT22;3478;51.462;7.338;2023-04-06T16:23:47;11.10;82.70
6879;DHT22;3478;51.462;7.338;2023-04-06T16:28:49;10.90;84.70
6879;DHT22;3478;51.462;7.338;2023-04-06T16:33:53;10.90;85.50
6879;DHT22;3478;51.462;7.338;2023-04-06T16:38:56;10.70;86.30
6879;DHT22;3478;51.462;7.338;2023-04-06T16:43:59;10.60;88.00
6879;DHT22;3478;51.462;7.338;2023-04-06T16:49:03;10.40;91.20
6879;DHT22;3478;51.462;7.338;2023-04-06T16:54:06;10.30;93.20
6879;DHT22;3478;51.462;7.338;2023-04-06T16:59:08;10.20;97.70
6879;DHT22;3478;51.462;7.338;2023-04-06T17:04:12;10.10;99.90
6879;DHT22;3478;51.462;7.338;2023-04-06T17:09:14;9.90;99.90
6879;DHT22;3478;51.462;7.338;2023-04-06T17:14:16;9.70;99.90
6879;DHT22;3478;51.462;7.338;2023-04-06T17:19:20;9.50;99.90
6879;DHT22;3478;51.462;7.338;2023-04-06T17:24:22;9.50;99.90
6879;DHT22;3478;51.462;7.338;2023-04-06T17:29:24;9.40;99.90
6879;DHT22;3478;51.462;7.338;2023-04-06T17:34:27;9.20;99.90
6879;DHT22;3478;51.462;7.338;2023-04-06T17:39:29;9.10;99.90
6879;DHT22;3478;51.462;7.338;2023-04-06T17:44:32;9.10;99.90
6879;DHT22;3478;51.462;7.338;2023-04-06T17:49:35;9.00;99.90
6879;DHT22;3478;51.462;7.338;2023-04-06T17:54:37;9.00;99.90
6879;DHT22;3478;51.462;7.338;2023-04-06T17:59:39;8.90;99.90
6879;DHT22;3478;51.462;7.338;2023-04-06T18:04:42;8.70;99.90
6879;DHT22;3478;51.462;7.338;2023-04-06T18:09:44;8.70;99.90
6879;DHT22;3478;51.462;7.338;2023-04-06T18:14:46;8.70;99.90
6879;DHT22;3478;51.462;7.338;2023-04-06T18:19:49;8.70;99.90
6879;DHT22;3478;51.462;7.338;2023-04-06T18:24:51;8.70;99.90
6879;DHT22;3478;51.462;7.338;2023-04-06T18:29:53;8.60;99.90
6879;DHT22;3478;51.462;7.338;2023-04-06T18:34:57;8.50;99.90
6879;DHT22;3478;51.462;7.338;2023-04-06T18:39:59;8.40;99.90
6879;DHT22;3478;51.462;7.338;2023-04-06T18:45:01;8.40;99.90
6879;DHT22;3478;51.462;7.338;2023-04-06T18:50:05;8.40;99.90
6879;DHT22;3478;51.462;7.338;2023-04-06T18:55:08;8.40;99.90
6879;DHT22;3478;51.462;7.338;2023-04-06T19:00:12;8.30;99.90
6879;DHT22;3478;51.462;7.338;2023-04-06T19:05:16;8.30;99.90
6879;DHT22;3478;51.462;7.338;2023-04-06T19:10:18;8.30;99.90
6879;DHT22;3478;51.462;7.338;2023-04-06T19:15:20;8.20;99.90
6879;DHT22;3478;51.462;7.338;2023-04-06T19:20:24;8.20;99.90
6879;DHT22;3478;51.462;7.338;2023-04-06T19:25:26;8.20;99.90
6879;DHT22;3478;51.462;7.338;2023-04-06T19:30:27;8.20;99.90
6879;DHT22;3478;51.462;7.338;2023-04-06T19:35:31;8.20;99.90
6879;DHT22;3478;51.462;7.338;2023-04-06T19:40:33;8.00;99.90
6879;DHT22;3478;51.462;7.338;2023-04-06T19:45:35;8.00;99.90
6879;DHT22;3478;51.462;7.338;2023-04-06T19:50:38;8.00;99.90
6879;DHT22;3478;51.462;7.338;2023-04-06T19:55:40;8.00;99.90
6879;DHT22;3478;51.462;7.338;2023-04-06T20:00:42;8.00;99.90
6879;DHT22;3478;51.462;7.338;2023-04-06T20:05:45;7.90;99.90
6879;DHT22;3478;51.462;7.338;2023-04-06T20:10:47;7.80;99.90
6879;DHT22;3478;51.462;7.338;2023-04-06T20:15:49;7.80;99.90
6879;DHT22;3478;51.462;7.338;2023-04-06T20:20:52;7.80;99.90
6879;DHT22;3478;51.462;7.338;2023-04-06T20:25:55;7.90;99.90
6879;DHT22;3478;51.462;7.338;2023-04-06T20:31:05;7.80;99.90
6879;DHT22;3478;51.462;7.338;2023-04-06T20:36:08;7.80;99.90
6879;DHT22;3478;51.462;7.338;2023-04-06T20:41:11;7.80;99.90
6879;DHT22;3478;51.462;7.338;2023-04-06T20:46:14;7.80;99.90
6879;DHT22;3478;51.462;7.338;2023-04-06T20:51:19;7.80;99.90
6879;DHT22;3478;51.462;7.338;2023-04-06T20:56:22;7.80;99.90
6879;DHT22;3478;51.462;7.338;2023-04-06T21:01:26;7.90;99.90
6879;DHT22;3478;51.462;7.338;2023-04-06T21:06:30;7.90;99.90
6879;DHT22;3478;51.462;7.338;2023-04-06T21:11:32;7.80;99.90
6879;DHT22;3478;51.462;7.338;2023-04-06T21:16:34;7.90;99.90
6879;DHT22;3478;51.462;7.338;2023-04-06T21:21:37;7.80;99.90
6879;DHT22;3478;51.462;7.338;2023-04-06T21:26:39;7.90;99.90
6879;DHT22;3478;51.462;7.338;2023-04-06T21:31:41;7.80;99.90
6879;DHT22;3478;51.462;7.338;2023-04-06T21:36:44;7.80;99.90
6879;DHT22;3478;51.462;7.338;2023-04-06T21:41:46;7.70;99.90
6879;DHT22;3478;51.462;7.338;2023-04-06T21:46:48;7.70;99.90
6879;DHT22;3478;51.462;7.338;2023-04-06T21:51:51;7.70;99.90
6879;DHT22;3478;51.462;7.338;2023-04-06T21:56:53;7.80;99.90
6879;DHT22;3478;51.462;7.338;2023-04-06T22:01:55;7.70;99.90
6879;DHT22;3478;51.462;7.338;2023-04-06T22:06:59;7.80;99.90
6879;DHT22;3478;51.462;7.338;2023-04-06T22:12:01;7.80;99.90
6879;DHT22;3478;51.462;7.338;2023-04-06T22:17:03;7.80;99.90
6879;DHT22;3478;51.462;7.338;2023-04-06T22:22:06;7.80;99.90
6879;DHT22;3478;51.462;7.338;2023-04-06T22:27:08;7.80;99.90
6879;DHT22;3478;51.462;7.338;2023-04-06T22:32:10;7.80;99.90
6879;DHT22;3478;51.462;7.338;2023-04-06T22:37:13;7.80;99.90
6879;DHT22;3478;51.462;7.338;2023-04-06T22:42:15;7.80;99.90
6879;DHT22;3478;51.462;7.338;2023-04-06T22:47:17;7.90;99.90
6879;DHT22;3478;51.462;7.338;2023-04-06T22:52:21;7.90;99.90
6879;DHT22;3478;51.462;7.338;2023-04-06T22:57:22;7.90;99.90
6879;DHT22;3478;51.462;7.338;2023-04-06T23:02:24;7.90;99.90
6879;DHT22;3478;51.462;7.338;2023-04-06T23:07:28;7.90;99.90
6879;DHT22;3478;51.462;7.338;2023-04-06T23:12:32;7.80;99.90
6879;DHT22;3478;51.462;7.338;2023-04-06T23:17:33;7.80;99.90
6879;DHT22;3478;51.462;7.338;2023-04-06T23:22:37;7.80;99.90
6879;DHT22;3478;51.462;7.338;2023-04-06T23:27:39;7.90;99.90
6879;DHT22;3478;51.462;7.338;2023-04-06T23:32:41;7.90;99.90
6879;DHT22;3478;51.462;7.338;2023-04-06T23:37:44;7.90;99.90
6879;DHT22;3478;51.462;7.338;2023-04-06T23:42:46;7.90;99.90
6879;DHT22;3478;51.462;7.338;2023-04-06T23:47:48;7.90;99.90
6879;DHT22;3478;51.462;7.338;2023-04-06T23:52:51;8.00;99.90
6879;DHT22;3478;51.462;7.338;2023-04-06T23:57:53;8.10;99.90
